Corum, Turkey
Current Conditions -  °F | °C
As of 3:20 PM on Friday 24 Oct 2014 (Local Time) from LTAP Reporting Station
Broken Clouds Broken Clouds  
Wind Chill: 64°   Ceiling: 10000
Heat Index: 64°   Visibility: 6mi
Dew Point: 46°   Wind: 12mph
Humidity: 52%   Direction: 200°SSW
Pressure: 29.97"   Gusts: NA
Location:  40.56°N, 34.96°E
Report Text: LTAP 241220Z 20010KT 9999 SCT040 BKN100 18/08 Q1015 NOSIG
Loading
Personal Weather Stations






























Interactive Weather Map
Tropical Storm Tracking
New forecast layout! Learn more

10-Day Weather Forecast

Advertisements
Track Severe Weather on mobile